createdAt,value
2022-10-13T00:00:14.688Z,101305.31
2022-10-13T00:02:41.172Z,101306.56
2022-10-13T00:05:08.505Z,101302.72
2022-10-13T00:07:35.078Z,101299.38
2022-10-13T00:10:03.456Z,101292.88
2022-10-13T00:12:29.886Z,101292.69
2022-10-13T00:14:58.049Z,101290.56
2022-10-13T00:17:24.512Z,101290.06
2022-10-13T00:19:50.940Z,101287.19
2022-10-13T00:22:17.716Z,101280.19
2022-10-13T00:24:44.446Z,101284.88
2022-10-13T00:27:12.266Z,101281.38
2022-10-13T00:29:38.755Z,101283.78
2022-10-13T00:32:05.262Z,101288.13
2022-10-13T00:34:31.665Z,101293.41
2022-10-13T00:36:58.106Z,101287.69
2022-10-13T00:39:24.621Z,101291.25
2022-10-13T00:41:51.140Z,101284.16
2022-10-13T00:44:59.808Z,101282.66
2022-10-13T00:47:28.719Z,101279.94
2022-10-13T00:49:55.891Z,101282.75
2022-10-13T00:52:25.314Z,101283.81
2022-10-13T00:54:52.044Z,101277.41
2022-10-13T00:57:19.881Z,101287.13
2022-10-13T00:59:47.346Z,101284.06
2022-10-13T01:02:15.820Z,101277.09
2022-10-13T01:04:45.432Z,101281.94
2022-10-13T01:07:14.517Z,101278.97
2022-10-13T01:09:40.993Z,101273.38
2022-10-13T01:12:18.679Z,101274.84
2022-10-13T01:14:52.309Z,101281.66
2022-10-13T01:17:28.760Z,101279.31
2022-10-13T01:20:30.426Z,101283.09
2022-10-13T01:23:15.539Z,101277.59
2022-10-13T01:26:12.842Z,101278.22
2022-10-13T01:29:02.380Z,101266.56
2022-10-13T01:31:37.511Z,101270.53
2022-10-13T01:34:14.690Z,101267.50
2022-10-13T01:36:50.930Z,101261.81
2022-10-13T01:39:26.152Z,101267.06
2022-10-13T01:41:59.916Z,101260.88
2022-10-13T01:44:29.352Z,101259.53
2022-10-13T01:46:58.681Z,101254.50
2022-10-13T01:49:30.687Z,101252.44
2022-10-13T01:52:01.696Z,101246.75
2022-10-13T01:54:28.152Z,101242.38
2022-10-13T01:56:55.246Z,101252.97
2022-10-13T01:59:24.593Z,101247.38
2022-10-13T02:02:02.262Z,101248.13
2022-10-13T02:04:41.078Z,101237.44
2022-10-13T02:07:15.164Z,101235.66
2022-10-13T02:09:50.410Z,101235.00
2022-10-13T02:12:23.849Z,101238.47
2022-10-13T02:14:53.178Z,101232.81
2022-10-13T02:17:21.151Z,101231.78
2022-10-13T02:19:47.809Z,101235.69
2022-10-13T02:22:16.350Z,101225.22
2022-10-13T02:24:43.243Z,101224.66
2022-10-13T02:27:09.777Z,101218.63
2022-10-13T02:29:48.982Z,101225.03
2022-10-13T02:32:15.465Z,101224.78
2022-10-13T02:34:43.216Z,101218.50
2022-10-13T02:37:09.659Z,101220.19
2022-10-13T02:39:36.114Z,101222.56
2022-10-13T02:42:02.580Z,101221.00
2022-10-13T02:44:29.224Z,101217.97
2022-10-13T02:46:55.619Z,101222.09
2022-10-13T02:49:22.026Z,101221.59
2022-10-13T02:51:49.957Z,101214.47
2022-10-13T02:54:16.510Z,101221.66
2022-10-13T02:56:42.942Z,101217.28
2022-10-13T02:59:09.395Z,101216.47
2022-10-13T03:01:35.908Z,101209.38
2022-10-13T03:04:02.359Z,101206.59
2022-10-13T03:06:28.950Z,101211.44
2022-10-13T03:08:56.716Z,101207.28
2022-10-13T03:11:23.139Z,101202.44
2022-10-13T03:13:49.545Z,101204.69
2022-10-13T03:16:15.978Z,101200.41
2022-10-13T03:18:42.526Z,101193.28
2022-10-13T03:21:10.184Z,101197.69
2022-10-13T03:23:36.663Z,101202.16
2022-10-13T03:26:05.736Z,101198.03
2022-10-13T03:28:32.233Z,101194.66
2022-10-13T03:31:03.041Z,101197.50
2022-10-13T03:33:29.548Z,101199.09
2022-10-13T03:35:58.651Z,101199.56
2022-10-13T03:38:25.108Z,101197.91
2022-10-13T03:40:51.503Z,101203.84
2022-10-13T03:43:19.301Z,101205.84
2022-10-13T03:45:54.727Z,101198.88
2022-10-13T03:48:21.182Z,101197.09
2022-10-13T03:50:47.616Z,101191.59
2022-10-13T03:53:14.040Z,101200.47
2022-10-13T03:55:40.499Z,101204.84
2022-10-13T03:58:06.960Z,101205.38
2022-10-13T04:00:37.480Z,101205.38
2022-10-13T04:03:03.934Z,101203.00
2022-10-13T04:05:30.415Z,101200.75
2022-10-13T04:07:56.892Z,101201.53
2022-10-13T04:10:23.282Z,101197.16
2022-10-13T04:12:49.786Z,101196.41
2022-10-13T04:15:16.348Z,101206.03
2022-10-13T04:17:44.098Z,101198.66
2022-10-13T04:20:11.001Z,101202.88
2022-10-13T04:22:37.647Z,101198.22
2022-10-13T04:25:05.144Z,101198.22
2022-10-13T04:27:31.839Z,101193.31
2022-10-13T04:29:58.665Z,101190.78
2022-10-13T04:32:25.154Z,101198.03
2022-10-13T04:34:52.870Z,101187.59
2022-10-13T04:37:19.383Z,101185.91
2022-10-13T04:39:45.801Z,101183.72
2022-10-13T04:42:12.245Z,101180.19
2022-10-13T04:44:38.738Z,101171.97
2022-10-13T04:47:05.208Z,101171.84
2022-10-13T04:49:31.680Z,101179.47
2022-10-13T04:51:59.461Z,101172.19
2022-10-13T04:54:25.869Z,101182.50
2022-10-13T04:56:52.272Z,101172.03
2022-10-13T04:59:18.707Z,101175.88
2022-10-13T05:01:45.202Z,101175.09
2022-10-13T05:04:11.616Z,101171.03
2022-10-13T05:06:58.809Z,101159.88
2022-10-13T05:09:28.106Z,101158.50
2022-10-13T05:11:54.555Z,101167.09
2022-10-13T05:14:21.001Z,101160.84
2022-10-13T05:16:47.878Z,101159.72
2022-10-13T05:19:14.960Z,101164.41
2022-10-13T05:21:41.648Z,101158.16
2022-10-13T05:24:08.384Z,101164.59
2022-10-13T05:26:36.293Z,101154.53
2022-10-13T05:29:03.027Z,101150.97
2022-10-13T05:31:31.341Z,101158.16
2022-10-13T05:33:57.791Z,101154.75
2022-10-13T05:36:26.328Z,101150.09
2022-10-13T05:38:54.003Z,101152.13
2022-10-13T05:41:22.037Z,101158.16
2022-10-13T05:43:51.557Z,101162.63
2022-10-13T05:46:17.959Z,101153.72
2022-10-13T05:48:44.435Z,101155.91
2022-10-13T05:51:13.999Z,101141.00
2022-10-13T05:53:49.603Z,101141.91
2022-10-13T05:56:21.856Z,101137.59
2022-10-13T05:58:53.017Z,101146.06
2022-10-13T06:01:23.354Z,101132.81
2022-10-13T06:03:51.685Z,101133.88
2022-10-13T06:06:18.408Z,101133.66
2022-10-13T06:08:44.992Z,101135.97
2022-10-13T06:11:11.478Z,101130.19
2022-10-13T06:13:37.929Z,101135.13
2022-10-13T06:16:06.167Z,101138.22
2022-10-13T06:18:32.560Z,101136.72
2022-10-13T06:20:59.120Z,101132.28
2022-10-13T06:23:25.618Z,101126.47
2022-10-13T06:25:53.702Z,101128.44
2022-10-13T06:28:21.152Z,101122.75
2022-10-13T06:30:48.328Z,101108.78
2022-10-13T06:33:16.122Z,101108.72
2022-10-13T06:35:42.523Z,101115.19
2022-10-13T06:38:08.967Z,101113.75
2022-10-13T06:40:35.454Z,101112.22
2022-10-13T06:43:01.933Z,101122.13
2022-10-13T06:45:28.425Z,101126.81
2022-10-13T06:47:55.202Z,101125.81
2022-10-13T06:50:23.413Z,101129.50
2022-10-13T06:52:49.868Z,101128.53
2022-10-13T06:55:16.519Z,101118.53
2022-10-13T06:57:42.957Z,101125.06
2022-10-13T07:00:10.806Z,101117.72
2022-10-13T07:02:37.222Z,101122.03
2022-10-13T07:05:04.089Z,101115.16
2022-10-13T07:07:31.836Z,101120.91
2022-10-13T07:09:58.215Z,101113.84
2022-10-13T07:12:24.669Z,101120.09
2022-10-13T07:14:51.081Z,101129.66
2022-10-13T07:17:17.873Z,101131.84
2022-10-13T07:19:44.424Z,101127.19
2022-10-13T07:22:10.832Z,101125.88
2022-10-13T07:24:38.639Z,101118.22
2022-10-13T07:27:07.769Z,101115.91
2022-10-13T07:29:34.614Z,101116.22
2022-10-13T07:32:01.035Z,101106.75
2022-10-13T07:34:27.442Z,101108.03
2022-10-13T07:36:53.876Z,101109.69
2022-10-13T07:39:20.290Z,101109.91
2022-10-13T07:41:51.093Z,101120.66
2022-10-13T07:44:17.893Z,101117.25
2022-10-13T07:46:44.381Z,101117.72
2022-10-13T07:49:13.702Z,101112.25
2022-10-13T07:51:42.605Z,101114.44
2022-10-13T07:54:09.043Z,101111.44
2022-10-13T07:56:35.596Z,101113.06
2022-10-13T07:59:03.349Z,101095.72
2022-10-13T08:01:29.841Z,101100.81
2022-10-13T08:03:56.410Z,101099.41
2022-10-13T08:06:23.217Z,101091.72
2022-10-13T08:08:49.604Z,101098.53
2022-10-13T08:11:17.865Z,101089.88
2022-10-13T08:13:47.031Z,101086.06
2022-10-13T08:16:14.808Z,101090.34
2022-10-13T08:18:41.228Z,101083.66
2022-10-13T08:21:33.480Z,101094.78
2022-10-13T08:23:58.130Z,101083.72
2022-10-13T08:26:26.481Z,101077.34
2022-10-13T08:31:41.210Z,101084.00
2022-10-13T08:34:07.793Z,101084.69
2022-10-13T08:36:34.354Z,101079.50
2022-10-13T08:39:00.836Z,101078.44
2022-10-13T08:41:29.941Z,101076.06
2022-10-13T08:44:41.274Z,101078.03
2022-10-13T08:47:01.911Z,101077.66
2022-10-13T08:49:30.022Z,101078.69
2022-10-13T08:51:56.891Z,101079.44
2022-10-13T08:54:25.783Z,101077.34
2022-10-13T08:56:53.079Z,101089.44
2022-10-13T08:59:20.054Z,101091.75
2022-10-13T09:01:46.512Z,101092.47
2022-10-13T09:04:28.374Z,101098.41
2022-10-13T09:06:58.972Z,101073.19
2022-10-13T09:09:25.422Z,101073.81
2022-10-13T09:11:52.137Z,101085.94
2022-10-13T09:14:24.241Z,101089.25
2022-10-13T09:16:52.042Z,101091.88
2022-10-13T09:19:25.739Z,101092.16
2022-10-13T09:21:52.627Z,101097.34
2022-10-13T09:24:21.578Z,101094.63
2022-10-13T09:26:52.340Z,101103.63
2022-10-13T09:29:22.275Z,101095.31
2022-10-13T09:31:48.670Z,101096.13
2022-10-13T09:34:24.498Z,101085.50
2022-10-13T09:36:58.796Z,101082.50
2022-10-13T09:39:26.228Z,101091.34
2022-10-13T09:42:08.532Z,101087.69
2022-10-13T09:44:35.013Z,101073.78
2022-10-13T09:47:03.447Z,101082.25
2022-10-13T09:49:35.907Z,101083.97
2022-10-13T09:52:05.711Z,101089.91
2022-10-13T09:54:44.916Z,101092.06
2022-10-13T09:57:18.486Z,101088.66
2022-10-13T09:59:48.260Z,101085.97
2022-10-13T10:02:25.065Z,101087.78
2022-10-13T10:04:58.282Z,101085.31
2022-10-13T10:07:29.928Z,101076.59
2022-10-13T10:10:02.835Z,101079.81
2022-10-13T10:12:32.277Z,101072.31
2022-10-13T10:14:58.831Z,101072.16
2022-10-13T10:17:32.468Z,101058.81
2022-10-13T10:20:04.729Z,101059.97
2022-10-13T10:22:37.277Z,101050.44
2022-10-13T10:25:22.708Z,101058.81
2022-10-13T10:28:02.415Z,101059.78
2022-10-13T10:30:31.179Z,101055.34
2022-10-13T10:33:03.838Z,101059.28
2022-10-13T10:35:44.425Z,101065.22
2022-10-13T10:38:24.363Z,101055.13
2022-10-13T10:41:00.989Z,101048.94
2022-10-13T10:43:52.504Z,101051.06
2022-10-13T10:46:22.810Z,101037.72
2022-10-13T10:48:52.756Z,101047.03
2022-10-13T10:51:26.616Z,101043.75
2022-10-13T10:54:01.876Z,101041.91
2022-10-13T10:56:34.378Z,101029.34
2022-10-13T10:59:13.246Z,101026.78
2022-10-13T11:01:48.803Z,101018.53
2022-10-13T11:04:38.074Z,101023.72
2022-10-13T11:07:10.785Z,101018.19
2022-10-13T11:10:04.811Z,101012.63
2022-10-13T11:13:25.096Z,101008.72
2022-10-13T11:15:52.000Z,101002.00
2022-10-13T11:18:56.394Z,100995.91
2022-10-13T11:21:22.884Z,100993.22
2022-10-13T11:23:50.795Z,100987.28
2022-10-13T11:26:42.404Z,100982.47
2022-10-13T11:29:39.024Z,100984.63
2022-10-13T11:32:25.476Z,100981.47
2022-10-13T11:34:57.878Z,100981.44
2022-10-13T11:37:32.241Z,100974.34
2022-10-13T11:40:16.252Z,100977.31
2022-10-13T11:43:05.136Z,100981.25
2022-10-13T11:45:46.816Z,100967.47
2022-10-13T11:48:36.324Z,100969.41
2022-10-13T11:51:16.247Z,100970.22
2022-10-13T11:53:53.484Z,100967.75
2022-10-13T11:56:32.881Z,100967.41
2022-10-13T11:58:59.374Z,100957.63
2022-10-13T12:01:25.779Z,100956.94
2022-10-13T12:03:52.276Z,100949.06
2022-10-13T12:06:28.046Z,100953.34
2022-10-13T12:08:54.488Z,100954.97
2022-10-13T12:11:25.949Z,100954.53
2022-10-13T12:13:52.951Z,100943.16
2022-10-13T12:16:19.541Z,100942.78
2022-10-13T12:18:48.788Z,100941.75
2022-10-13T12:21:17.421Z,100951.81
2022-10-13T12:23:44.293Z,100939.44
2022-10-13T12:26:16.270Z,100949.72
2022-10-13T12:28:54.129Z,100949.53
2022-10-13T12:31:23.321Z,100938.44
2022-10-13T12:33:54.007Z,100931.06
2022-10-13T12:36:22.757Z,100935.59
2022-10-13T12:38:52.667Z,100937.22
2022-10-13T12:41:24.391Z,100935.59
2022-10-13T12:43:53.093Z,100937.50
2022-10-13T12:46:40.046Z,100930.78
2022-10-13T12:49:07.319Z,100930.38
2022-10-13T12:51:36.515Z,100927.19
2022-10-13T12:54:07.429Z,100928.84
2022-10-13T12:56:34.226Z,100926.56
2022-10-13T12:59:02.043Z,100931.38
2022-10-13T13:01:31.219Z,100928.38
2022-10-13T13:04:00.518Z,100920.69
2022-10-13T13:06:31.366Z,100921.25
2022-10-13T13:09:29.030Z,100916.31
2022-10-13T13:12:26.783Z,100918.91
2022-10-13T13:14:55.665Z,100918.47
2022-10-13T13:17:52.936Z,100912.97
2022-10-13T13:20:27.594Z,100911.22
2022-10-13T13:22:54.121Z,100916.94
2022-10-13T13:25:20.591Z,100915.19
2022-10-13T13:27:47.146Z,100913.69
2022-10-13T13:30:17.484Z,100916.19
2022-10-13T13:32:43.955Z,100904.13
2022-10-13T13:35:10.393Z,100909.97
2022-10-13T13:37:39.895Z,100907.00
2022-10-13T13:40:07.943Z,100914.06
2022-10-13T13:42:34.319Z,100909.72
2022-10-13T13:45:00.743Z,100903.38
2022-10-13T13:47:28.669Z,100899.03
2022-10-13T13:49:56.798Z,100895.84
2022-10-13T13:52:24.160Z,100891.88
2022-10-13T13:54:51.341Z,100898.44
2022-10-13T13:57:19.325Z,100905.88
2022-10-13T13:59:46.009Z,100911.09
2022-10-13T14:02:14.680Z,100909.03
2022-10-13T14:04:42.693Z,100906.94
2022-10-13T14:07:09.345Z,100897.38
2022-10-13T14:09:35.751Z,100895.94
2022-10-13T14:12:02.164Z,100892.16
2022-10-13T14:14:30.275Z,100896.50
2022-10-13T14:16:56.698Z,100890.94
2022-10-13T14:19:23.101Z,100887.66
2022-10-13T14:21:50.872Z,100888.53
2022-10-13T14:24:17.591Z,100888.41
2022-10-13T14:26:44.143Z,100877.84
2022-10-13T14:29:10.629Z,100881.53
2022-10-13T14:31:37.073Z,100884.78
2022-10-13T14:34:03.567Z,100883.66
2022-10-13T14:36:29.984Z,100874.34
2022-10-13T14:38:57.803Z,100875.22
2022-10-13T14:41:24.264Z,100867.00
2022-10-13T14:43:52.382Z,100865.97
2022-10-13T14:46:18.909Z,100862.50
2022-10-13T14:48:45.345Z,100865.22
2022-10-13T14:51:12.271Z,100861.59
2022-10-13T14:53:40.605Z,100866.31
2022-10-13T14:56:17.196Z,100873.59
2022-10-13T14:58:43.637Z,100874.03
2022-10-13T15:01:10.025Z,100868.38
2022-10-13T15:03:36.508Z,100876.84
2022-10-13T15:06:02.979Z,100874.00
2022-10-13T15:08:29.610Z,100870.06
2022-10-13T15:10:58.801Z,100871.41
2022-10-13T15:13:26.813Z,100868.03
2022-10-13T15:15:53.333Z,100873.81
2022-10-13T15:18:19.979Z,100869.25
2022-10-13T15:20:47.027Z,100865.72
2022-10-13T15:23:13.772Z,100862.50
2022-10-13T15:25:40.302Z,100860.25
2022-10-13T15:28:07.808Z,100863.59
2022-10-13T15:30:35.559Z,100859.34
2022-10-13T15:33:01.970Z,100861.59
2022-10-13T15:35:29.415Z,100858.97
2022-10-13T15:37:55.849Z,100855.09
2022-10-13T15:40:22.269Z,100852.63
2022-10-13T15:42:48.677Z,100849.78
2022-10-13T15:45:15.331Z,100857.75
2022-10-13T15:47:43.057Z,100853.72
2022-10-13T15:50:10.131Z,100851.69
2022-10-13T15:52:40.046Z,100855.03
2022-10-13T15:55:07.305Z,100854.34
2022-10-13T15:57:33.913Z,100853.44
2022-10-13T16:00:00.413Z,100856.63
2022-10-13T16:02:26.881Z,100851.75
2022-10-13T16:04:54.711Z,100849.78
2022-10-13T16:07:21.136Z,100863.16
2022-10-13T16:09:47.647Z,100863.50
2022-10-13T16:12:14.079Z,100855.19
2022-10-13T16:14:40.579Z,100853.34
2022-10-13T16:17:06.963Z,100850.28
2022-10-13T16:19:33.384Z,100852.69
2022-10-13T16:22:01.147Z,100855.53
2022-10-13T16:24:28.552Z,100858.94
2022-10-13T16:26:54.944Z,100853.06
2022-10-13T16:29:21.358Z,100856.44
2022-10-13T16:31:47.834Z,100852.53
2022-10-13T16:34:14.280Z,100853.59
2022-10-13T16:36:40.696Z,100853.63
2022-10-13T16:39:08.457Z,100858.75
2022-10-13T16:41:35.043Z,100856.50
2022-10-13T16:44:01.441Z,100860.47
2022-10-13T16:46:27.856Z,100854.00
2022-10-13T16:48:54.275Z,100852.56
2022-10-13T16:51:22.733Z,100849.00
2022-10-13T16:53:50.604Z,100856.16
2022-10-13T16:56:18.765Z,100852.75
2022-10-13T16:58:45.287Z,100843.59
2022-10-13T17:01:12.533Z,100855.94
2022-10-13T17:03:39.657Z,100855.63
2022-10-13T17:06:06.807Z,100853.50
2022-10-13T17:08:33.647Z,100861.53
2022-10-13T17:11:00.408Z,100850.84
2022-10-13T17:13:28.585Z,100862.66
2022-10-13T17:15:56.393Z,100864.50
2022-10-13T17:18:23.864Z,100861.81
2022-10-13T17:20:51.343Z,100854.44
2022-10-13T17:23:17.888Z,100860.38
2022-10-13T17:25:44.315Z,100856.59
2022-10-13T17:28:10.695Z,100851.50
2022-10-13T17:30:38.573Z,100855.78
2022-10-13T17:33:05.120Z,100852.69
2022-10-13T17:35:31.604Z,100857.09
2022-10-13T17:37:58.155Z,100858.25
2022-10-13T17:40:24.729Z,100857.44
2022-10-13T17:42:51.157Z,100865.31
2022-10-13T17:45:17.603Z,100869.94
2022-10-13T17:47:49.294Z,100871.41
2022-10-13T17:50:15.864Z,100865.81
2022-10-13T17:52:42.831Z,100867.78
2022-10-13T17:55:10.010Z,100869.13
2022-10-13T17:57:36.611Z,100865.31
2022-10-13T18:00:05.216Z,100865.47
2022-10-13T18:02:31.701Z,100872.75
2022-10-13T18:04:59.440Z,100872.25
2022-10-13T18:07:25.876Z,100869.94
2022-10-13T18:09:52.805Z,100859.06
2022-10-13T18:12:19.321Z,100860.91
2022-10-13T18:14:45.996Z,100876.00
2022-10-13T18:17:12.469Z,100865.63
2022-10-13T18:19:40.419Z,100871.91
2022-10-13T18:22:08.404Z,100869.13
2022-10-13T18:24:34.822Z,100867.63
2022-10-13T18:27:01.250Z,100873.53
2022-10-13T18:29:27.692Z,100873.06
2022-10-13T18:31:55.068Z,100879.63
2022-10-13T18:34:21.532Z,100878.31
2022-10-13T18:36:49.917Z,100880.25
2022-10-13T18:39:19.317Z,100874.38
2022-10-13T18:41:46.180Z,100881.13
2022-10-13T18:44:13.274Z,100877.31
2022-10-13T18:46:40.221Z,100879.94
2022-10-13T18:49:08.666Z,100874.19
2022-10-13T18:51:36.504Z,100880.97
2022-10-13T18:54:03.951Z,100877.84
2022-10-13T18:56:33.177Z,100870.41
2022-10-13T18:59:01.232Z,100874.69
2022-10-13T19:01:29.763Z,100868.66
2022-10-13T19:03:56.518Z,100881.13
2022-10-13T19:06:24.886Z,100872.38
2022-10-13T19:08:51.304Z,100869.22
2022-10-13T19:11:19.772Z,100872.41
2022-10-13T19:13:48.214Z,100877.47
2022-10-13T19:16:16.726Z,100876.41
2022-10-13T19:18:43.570Z,100873.16
2022-10-13T19:21:10.539Z,100871.56
2022-10-13T19:23:37.990Z,100878.13
2022-10-13T19:26:13.930Z,100881.13
2022-10-13T19:28:41.841Z,100875.84
2022-10-13T19:31:10.928Z,100881.25
2022-10-13T19:33:40.775Z,100873.84
2022-10-13T19:36:11.788Z,100885.38
2022-10-13T19:38:38.209Z,100880.09
2022-10-13T19:41:07.055Z,100878.00
2022-10-13T19:43:33.968Z,100879.13
2022-10-13T19:46:00.647Z,100877.28
2022-10-13T19:48:28.417Z,100878.00
2022-10-13T19:50:54.957Z,100882.25
2022-10-13T19:53:21.511Z,100880.28
2022-10-13T19:55:48.343Z,100888.16
2022-10-13T19:58:15.849Z,100883.75
2022-10-13T20:00:42.970Z,100891.16
2022-10-13T20:03:09.438Z,100887.84
2022-10-13T20:05:38.949Z,100885.19
2022-10-13T20:08:05.952Z,100884.25
2022-10-13T20:10:32.640Z,100881.75
2022-10-13T20:12:59.814Z,100880.59
2022-10-13T20:15:26.270Z,100879.13
2022-10-13T20:17:52.731Z,100883.91
2022-10-13T20:20:22.381Z,100885.53
2022-10-13T20:22:50.608Z,100889.53
2022-10-13T20:25:17.059Z,100895.59
2022-10-13T20:27:43.439Z,100888.81
2022-10-13T20:30:11.325Z,100890.81
2022-10-13T20:32:40.939Z,100889.03
2022-10-13T20:35:07.940Z,100885.88
2022-10-13T20:37:34.492Z,100881.28
2022-10-13T20:40:02.480Z,100885.34
2022-10-13T20:42:29.042Z,100883.72
2022-10-13T20:44:55.518Z,100885.50
2022-10-13T20:47:22.268Z,100877.66
2022-10-13T20:49:49.090Z,100877.31
2022-10-13T20:52:15.540Z,100869.13
2022-10-13T20:54:41.971Z,100869.78
2022-10-13T20:57:09.732Z,100866.66
2022-10-13T20:59:36.287Z,100881.91
2022-10-13T21:02:02.703Z,100876.19
2022-10-13T21:04:32.675Z,100875.03
2022-10-13T21:06:59.181Z,100869.63
2022-10-13T21:09:25.625Z,100864.84
2022-10-13T21:11:52.005Z,100875.19
2022-10-13T21:14:19.797Z,100868.09
2022-10-13T21:16:46.230Z,100875.53
2022-10-13T21:19:12.676Z,100876.19
2022-10-13T21:21:39.070Z,100874.34
2022-10-13T21:24:07.678Z,100866.13
2022-10-13T21:26:35.077Z,100866.47
2022-10-13T21:29:02.235Z,100868.59
2022-10-13T21:31:30.339Z,100869.44
2022-10-13T21:33:57.032Z,100862.03
2022-10-13T21:36:25.703Z,100864.03
2022-10-13T21:38:54.713Z,100861.88
2022-10-13T21:41:21.666Z,100861.72
2022-10-13T21:43:48.880Z,100856.94
2022-10-13T21:46:17.646Z,100867.47
2022-10-13T21:48:46.488Z,100860.75
2022-10-13T21:51:15.482Z,100866.13
2022-10-13T21:53:42.663Z,100869.94
2022-10-13T21:56:11.069Z,100870.59
2022-10-13T21:58:37.703Z,100871.53
2022-10-13T22:01:05.556Z,100874.19
2022-10-13T22:03:32.419Z,100869.59
2022-10-13T22:06:04.121Z,100873.22
2022-10-13T22:08:38.297Z,100866.81
2022-10-13T22:11:06.509Z,100868.13
2022-10-13T22:13:33.158Z,100868.44
2022-10-13T22:16:03.035Z,100866.50
2022-10-13T22:18:29.615Z,100865.97
2022-10-13T22:21:01.502Z,100855.97
2022-10-13T22:23:28.012Z,100852.50
2022-10-13T22:25:54.483Z,100860.38
2022-10-13T22:28:21.315Z,100847.88
2022-10-13T22:30:47.975Z,100849.38
2022-10-13T22:33:14.518Z,100854.47
2022-10-13T22:35:40.929Z,100853.50
2022-10-13T22:38:08.949Z,100849.88
2022-10-13T22:40:35.389Z,100853.50
2022-10-13T22:43:01.831Z,100851.50
2022-10-13T22:45:28.274Z,100857.41
2022-10-13T22:47:54.698Z,100851.16
2022-10-13T22:50:21.092Z,100851.19
2022-10-13T22:52:47.557Z,100849.13
2022-10-13T22:55:15.521Z,100846.88
2022-10-13T22:57:42.035Z,100841.34
2022-10-13T23:00:11.153Z,100839.84
2022-10-13T23:02:38.016Z,100841.78
2022-10-13T23:05:05.299Z,100843.78
2022-10-13T23:07:31.711Z,100846.56
2022-10-13T23:09:58.095Z,100844.28
2022-10-13T23:12:25.847Z,100843.06
2022-10-13T23:14:52.268Z,100841.47
2022-10-13T23:17:19.234Z,100841.19
2022-10-13T23:19:45.872Z,100835.22
2022-10-13T23:22:12.296Z,100843.44
2022-10-13T23:24:38.824Z,100839.03
2022-10-13T23:27:05.240Z,100840.16
2022-10-13T23:29:33.026Z,100853.16
2022-10-13T23:31:59.422Z,100839.88
2022-10-13T23:34:25.858Z,100837.81
2022-10-13T23:36:52.232Z,100828.81
2022-10-13T23:39:18.754Z,100827.25
2022-10-13T23:41:45.173Z,100829.63
2022-10-13T23:44:11.582Z,100827.50
2022-10-13T23:46:39.308Z,100824.88
2022-10-13T23:49:05.875Z,100829.13
2022-10-13T23:51:32.366Z,100825.88
2022-10-13T23:53:58.840Z,100821.09
2022-10-13T23:56:25.282Z,100817.94
2022-10-13T23:58:51.705Z,100824.38
